Time;durP1;ratioP1;P1;durP2;ratioP2;P2;SDS_P1;SDS_P2;PMS_P1;PMS_P2;Temp;Humidity;BMP_temperature;BMP_pressure;BME280_temperature;BME280_humidity;BME280_pressure;Samples;Min_cycle;Max_cycle;Signal;HPM_P1;HPM_P2
2022/05/31 00:00:05;;;;;;;5.82;1.58;;;6.70;99.90;;;;;;4900309;29;20073;-88
2022/05/31 00:02:31;;;;;;;2.15;1.30;;;6.60;99.90;;;;;;4900507;29;20115;-88
2022/05/31 00:05:24;;;;;;;5.35;1.67;;;6.60;99.90;;;;;;4900408;29;20514;-88
2022/05/31 00:07:49;;;;;;;3.22;1.10;;;6.60;99.90;;;;;;4891349;29;20035;-88
2022/05/31 00:10:22;;;;;;;1.90;1.20;;;6.60;99.90;;;;;;4894209;29;20025;-88
2022/05/31 00:12:47;;;;;;;1.63;1.42;;;6.60;99.90;;;;;;4896476;29;20554;-88
2022/05/31 00:15:15;;;;;;;4.70;1.35;;;6.60;99.90;;;;;;4885925;29;20025;-88
2022/05/31 00:17:55;;;;;;;1.88;1.60;;;6.60;99.90;;;;;;4899932;29;20039;-89
2022/05/31 00:20:35;;;;;;;4.10;1.40;;;6.60;99.90;;;;;;4913801;29;20058;-88
2022/05/31 00:23:01;;;;;;;1.60;1.50;;;6.60;99.90;;;;;;4920679;29;20500;-87
2022/05/31 00:25:26;;;;;;;1.38;1.27;;;6.60;99.90;;;;;;4932912;29;20051;-88
2022/05/31 00:28:12;;;;;;;2.25;1.23;;;6.60;99.90;;;;;;4919111;29;20063;-87
2022/05/31 00:30:39;;;;;;;4.28;1.50;;;6.60;99.90;;;;;;4918651;29;20385;-88
2022/05/31 00:33:06;;;;;;;2.20;1.13;;;6.50;99.90;;;;;;4918792;29;20039;-88
2022/05/31 00:35:53;;;;;;;1.55;1.25;;;6.50;99.90;;;;;;4919219;29;20607;-88
2022/05/31 00:38:20;;;;;;;2.78;1.35;;;6.50;99.90;;;;;;4901795;29;20118;-88
2022/05/31 00:40:46;;;;;;;2.95;1.55;;;6.50;99.90;;;;;;4898696;29;20039;-88
2022/05/31 00:43:18;;;;;;;3.55;1.88;;;6.50;99.90;;;;;;4899987;29;20032;-87
2022/05/31 00:46:00;;;;;;;5.22;1.77;;;6.50;99.90;;;;;;4899821;29;20036;-88
2022/05/31 00:48:34;;;;;;;8.07;1.73;;;6.40;99.90;;;;;;4901268;29;20057;-88
2022/05/31 00:51:07;;;;;;;2.00;1.80;;;6.40;99.90;;;;;;4898452;29;20092;-88
2022/05/31 00:53:57;;;;;;;3.15;2.13;;;6.40;99.90;;;;;;4908089;29;20045;-87
2022/05/31 00:56:26;;;;;;;3.42;1.70;;;6.40;99.90;;;;;;4933218;29;20485;-88
2022/05/31 00:59:00;;;;;;;2.63;1.77;;;6.40;99.90;;;;;;4918053;29;20053;-87
2022/05/31 01:01:53;;;;;;;4.03;1.48;;;6.40;99.90;;;;;;4918529;29;20422;-88
2022/05/31 01:04:22;;;;;;;7.00;1.77;;;6.40;99.90;;;;;;4918253;29;20029;-88
2022/05/31 01:06:48;;;;;;;4.15;2.08;;;6.40;99.90;;;;;;4918357;29;20039;-88
2022/05/31 01:09:32;;;;;;;2.13;1.90;;;6.40;99.90;;;;;;4900842;29;20024;-88
2022/05/31 01:11:59;;;;;;;5.05;1.77;;;6.40;99.90;;;;;;4932783;29;20056;-87
2022/05/31 01:14:26;;;;;;;2.25;1.58;;;6.40;99.90;;;;;;4900990;29;20039;-88
2022/05/31 01:17:06;;;;;;;2.58;1.50;;;6.40;99.90;;;;;;4917933;29;20485;-88
2022/05/31 01:20:01;;;;;;;3.50;1.92;;;6.40;99.90;;;;;;4932799;29;20520;-88
2022/05/31 01:22:29;;;;;;;4.93;1.58;;;6.30;99.90;;;;;;4917496;29;20032;-88
2022/05/31 01:25:07;;;;;;;4.25;1.63;;;6.30;99.90;;;;;;4900970;29;20516;-88
2022/05/31 01:27:55;;;;;;;4.75;1.60;;;6.40;99.90;;;;;;4893450;29;20032;-86
2022/05/31 01:30:21;;;;;;;3.78;1.70;;;6.30;99.90;;;;;;4917046;29;20084;-88
2022/05/31 01:33:07;;;;;;;2.95;1.88;;;6.30;99.90;;;;;;4900819;29;20065;-88
2022/05/31 01:35:34;;;;;;;5.90;2.25;;;6.30;99.90;;;;;;4917187;29;20055;-87
2022/05/31 01:38:32;;;;;;;3.00;2.00;;;6.30;99.90;;;;;;4917048;29;20040;-88
2022/05/31 01:41:04;;;;;;;4.00;1.83;;;6.30;99.90;;;;;;4932398;29;20551;-87
2022/05/31 01:43:29;;;;;;;4.60;1.70;;;6.30;99.90;;;;;;4900166;29;20066;-87
2022/05/31 01:46:06;;;;;;;3.22;1.52;;;6.30;99.90;;;;;;4900508;29;20064;-87
2022/05/31 01:48:35;;;;;;;1.98;1.60;;;6.20;99.90;;;;;;4916457;29;20055;-88
2022/05/31 01:51:01;;;;;;;1.80;1.55;;;6.20;99.90;;;;;;4917318;29;20116;-87
2022/05/31 01:53:46;;;;;;;7.55;1.95;;;6.20;99.90;;;;;;4899804;29;20083;-87
2022/05/31 01:56:13;;;;;;;5.32;1.50;;;6.20;99.90;;;;;;4900273;29;20123;-87
2022/05/31 01:58:42;;;;;;;3.67;1.63;;;6.20;99.90;;;;;;4917265;29;20032;-88
2022/05/31 02:01:09;;;;;;;3.38;1.85;;;6.20;99.90;;;;;;4917277;29;20477;-88
2022/05/31 02:03:38;;;;;;;3.13;1.23;;;6.20;99.90;;;;;;4917219;29;20507;-87
2022/05/31 02:06:04;;;;;;;3.42;1.50;;;6.10;99.90;;;;;;4900018;29;20024;-87
2022/05/31 02:08:47;;;;;;;1.63;1.52;;;6.20;99.90;;;;;;4917010;29;20028;-87
2022/05/31 02:11:13;;;;;;;2.42;1.58;;;6.20;99.90;;;;;;4917002;29;20078;-87
2022/05/31 02:13:38;;;;;;;4.50;2.38;;;6.20;99.90;;;;;;4931660;29;20484;-87
2022/05/31 02:16:04;;;;;;;2.25;1.60;;;6.10;99.90;;;;;;4917144;29;20028;-87
2022/05/31 02:19:15;;;;;;;2.00;1.40;;;6.20;99.90;;;;;;4917162;29;20032;-87
2022/05/31 02:21:35;;;;;;;3.17;1.58;;;6.20;99.90;;;;;;4914944;29;20119;-87
2022/05/31 02:24:09;;;;;;;6.55;2.47;;;6.10;99.90;;;;;;4915811;29;20032;-87
2022/05/31 02:26:36;;;;;;;2.55;1.65;;;6.10;99.90;;;;;;4916620;29;20036;-87
2022/05/31 02:29:14;;;;;;;2.50;1.60;;;6.10;99.90;;;;;;4916259;29;20024;-87
2022/05/31 02:31:40;;;;;;;4.22;1.83;;;6.10;99.90;;;;;;4897988;29;20040;-87
2022/05/31 02:34:07;;;;;;;4.07;1.67;;;6.10;99.90;;;;;;4899818;29;20401;-87
2022/05/31 02:36:51;;;;;;;5.03;1.80;;;6.10;99.90;;;;;;4935646;29;20118;-87
2022/05/31 02:39:17;;;;;;;5.40;1.52;;;6.00;99.90;;;;;;4915459;29;20092;-87
2022/05/31 02:41:44;;;;;;;2.22;1.50;;;6.00;99.90;;;;;;4906717;29;20055;-88
2022/05/31 02:44:21;;;;;;;4.43;1.50;;;6.00;99.90;;;;;;4934139;29;20082;-87
2022/05/31 02:46:47;;;;;;;4.00;1.80;;;6.00;99.90;;;;;;4899246;29;20492;-87
2022/05/31 02:49:13;;;;;;;2.00;1.40;;;5.90;99.90;;;;;;4896473;29;20430;-86
2022/05/31 02:52:16;;;;;;;2.13;1.60;;;5.90;99.90;;;;;;4928896;29;20026;-87
2022/05/31 02:54:43;;;;;;;2.53;1.55;;;5.80;99.90;;;;;;4932365;29;20039;-87
2022/05/31 02:57:09;;;;;;;2.95;1.85;;;5.80;99.90;;;;;;4916444;29;20108;-87
2022/05/31 02:59:36;;;;;;;1.98;1.83;;;5.80;99.90;;;;;;4916942;29;20060;-87
2022/05/31 03:02:02;;;;;;;1.77;1.45;;;5.80;99.90;;;;;;4916814;29;20370;-87
2022/05/31 03:04:28;;;;;;;3.33;1.65;;;5.80;99.90;;;;;;4899518;29;20024;-88
2022/05/31 03:07:01;;;;;;;1.77;1.42;;;5.90;99.90;;;;;;4916245;29;20024;-87
2022/05/31 03:09:28;;;;;;;2.65;1.80;;;5.90;99.90;;;;;;4916240;29;20048;-88
2022/05/31 03:12:13;;;;;;;5.55;1.85;;;5.90;99.90;;;;;;4915863;29;20027;-87
2022/05/31 03:18:27;;;;;;;1.67;1.58;;;6.00;99.90;;;;;;4897496;29;20032;-87
2022/05/31 03:21:28;;;;;;;1.80;1.67;;;6.00;99.90;;;;;;4898772;29;20067;-87
2022/05/31 03:24:00;;;;;;;3.75;1.52;;;6.00;99.90;;;;;;4917439;29;20396;-86
2022/05/31 03:26:29;;;;;;;6.18;1.95;;;6.00;99.90;;;;;;4913220;29;20083;-87
2022/05/31 03:29:19;;;;;;;1.52;1.42;;;6.10;99.90;;;;;;4916182;29;20142;-86
2022/05/31 03:31:44;;;;;;;3.30;2.05;;;6.10;99.90;;;;;;4911234;29;20024;-88
2022/05/31 03:34:23;;;;;;;3.15;1.92;;;6.10;99.90;;;;;;4899356;29;20170;-88
2022/05/31 03:36:49;;;;;;;4.25;1.50;;;6.10;99.90;;;;;;4915953;29;20021;-88
2022/05/31 03:39:14;;;;;;;3.95;1.63;;;6.10;99.90;;;;;;4915215;29;20350;-87
2022/05/31 03:42:07;;;;;;;3.80;1.67;;;6.20;99.90;;;;;;4915947;29;20552;-87
2022/05/31 03:44:32;;;;;;;2.35;1.60;;;6.20;99.90;;;;;;4915999;29;20044;-87
2022/05/31 03:46:58;;;;;;;2.83;1.63;;;6.30;99.90;;;;;;4916181;29;20083;-86
2022/05/31 03:49:33;;;;;;;7.03;2.05;;;6.30;99.90;;;;;;4915361;29;20484;-87
2022/05/31 03:51:59;;;;;;;4.40;1.67;;;6.40;99.90;;;;;;4915901;29;20385;-87
2022/05/31 03:54:33;;;;;;;2.45;1.75;;;6.40;99.90;;;;;;4915757;29;20028;-87
2022/05/31 03:57:15;;;;;;;1.55;1.30;;;6.50;99.90;;;;;;4930518;29;20040;-87
2022/05/31 03:59:41;;;;;;;1.98;1.38;;;6.50;99.90;;;;;;4916038;29;20087;-87
2022/05/31 04:02:20;;;;;;;1.75;1.55;;;6.50;99.90;;;;;;4916146;29;20024;-88
2022/05/31 04:04:46;;;;;;;4.28;1.73;;;6.60;99.90;;;;;;4898781;29;20055;-88
2022/05/31 04:07:17;;;;;;;3.47;1.88;;;6.70;99.90;;;;;;4915779;29;20024;-86
2022/05/31 04:09:42;;;;;;;7.43;2.40;;;6.70;99.90;;;;;;4915767;29;20548;-87
2022/05/31 04:12:27;;;;;;;5.00;1.83;;;6.80;99.90;;;;;;4916464;29;20120;-87
2022/05/31 04:14:53;;;;;;;3.53;2.03;;;6.90;99.90;;;;;;4913059;29;20040;-86
2022/05/31 04:17:18;;;;;;;6.53;2.35;;;7.00;99.90;;;;;;4901682;29;20036;-88
2022/05/31 04:19:44;;;;;;;7.20;2.03;;;7.00;99.90;;;;;;4920041;29;20078;-87
2022/05/31 04:22:31;;;;;;;4.07;1.80;;;7.10;99.90;;;;;;4918082;29;20067;-86
2022/05/31 04:25:00;;;;;;;7.75;2.05;;;7.10;99.90;;;;;;4932890;29;20036;-87
2022/05/31 04:27:34;;;;;;;1.73;1.50;;;7.20;99.90;;;;;;4918748;29;20430;-87
2022/05/31 04:30:00;;;;;;;2.35;1.77;;;7.20;99.90;;;;;;4894609;29;20037;-87
2022/05/31 04:32:25;;;;;;;8.10;2.20;;;7.20;99.90;;;;;;4908459;29;20083;-88
2022/05/31 04:34:55;;;;;;;3.85;1.92;;;7.30;99.90;;;;;;4917697;29;20039;-87
2022/05/31 04:37:21;;;;;;;5.05;1.73;;;7.30;99.90;;;;;;4911036;29;20028;-87
2022/05/31 04:39:47;;;;;;;4.20;1.77;;;7.40;99.90;;;;;;4920270;29;20055;-88
2022/05/31 04:42:16;;;;;;;4.85;2.00;;;7.40;99.90;;;;;;4914256;29;20036;-88
2022/05/31 04:44:41;;;;;;;7.97;2.15;;;7.50;99.90;;;;;;4913857;29;20030;-87
2022/05/31 04:47:07;;;;;;;2.75;1.88;;;7.50;99.90;;;;;;4915517;29;20032;-88
2022/05/31 04:49:39;;;;;;;5.47;1.73;;;7.60;99.90;;;;;;4917782;29;20050;-88
2022/05/31 04:52:05;;;;;;;3.22;1.98;;;7.70;99.90;;;;;;4918519;29;20040;-88
2022/05/31 04:54:30;;;;;;;4.28;2.28;;;7.70;99.90;;;;;;4900932;29;20092;-87
2022/05/31 04:57:18;;;;;;;3.13;2.38;;;7.80;99.90;;;;;;4917774;29;21041;-88
2022/05/31 04:59:45;;;;;;;10.15;3.15;;;7.80;99.90;;;;;;4902078;29;20036;-88
2022/05/31 05:02:15;;;;;;;5.45;2.55;;;7.90;99.90;;;;;;4916170;29;20080;-87
2022/05/31 05:04:40;;;;;;;3.97;2.40;;;7.90;99.90;;;;;;4916978;29;20162;-87
2022/05/31 05:07:06;;;;;;;6.63;2.88;;;8.00;99.90;;;;;;4901230;29;20032;-87
2022/05/31 05:09:46;;;;;;;7.03;2.63;;;8.00;99.90;;;;;;4917510;29;20030;-87
2022/05/31 05:12:11;;;;;;;6.65;2.95;;;8.10;99.90;;;;;;4917556;29;20449;-87
2022/05/31 05:14:37;;;;;;;6.80;2.53;;;8.20;99.90;;;;;;4918299;29;20031;-88
2022/05/31 05:17:03;;;;;;;6.40;2.42;;;8.30;99.90;;;;;;4931653;29;20028;-88
2022/05/31 05:19:30;;;;;;;3.63;1.80;;;8.30;99.90;;;;;;4906487;29;20036;-88
2022/05/31 05:21:56;;;;;;;2.83;2.10;;;8.40;99.90;;;;;;4917497;29;20036;-86
2022/05/31 05:24:21;;;;;;;6.43;2.50;;;8.50;99.90;;;;;;4917681;29;20032;-88
2022/05/31 05:26:50;;;;;;;6.45;2.28;;;8.60;99.90;;;;;;4900671;29;20028;-88
2022/05/31 05:31:59;;;;;;;7.60;2.60;;;8.70;99.90;;;;;;4913081;29;20028;-88
2022/05/31 05:35:12;;;;;;;9.55;2.50;;;8.90;99.90;;;;;;4917117;29;20028;-89
2022/05/31 05:37:38;;;;;;;13.93;2.40;;;9.10;99.90;;;;;;4913542;29;20440;-87
2022/05/31 05:40:04;;;;;;;7.35;2.78;;;9.10;99.90;;;;;;4917682;29;20025;-88
2022/05/31 05:42:31;;;;;;;7.18;2.65;;;9.20;99.90;;;;;;4900470;29;20040;-86
2022/05/31 05:44:56;;;;;;;17.05;3.45;;;9.30;99.90;;;;;;4907927;29;20057;-88
2022/05/31 05:47:22;;;;;;;16.20;3.45;;;9.40;99.90;;;;;;4914467;29;20519;-87
2022/05/31 05:49:50;;;;;;;11.35;3.55;;;9.40;99.90;;;;;;4917393;29;20025;-88
2022/05/31 05:52:16;;;;;;;10.02;3.72;;;9.50;99.90;;;;;;4901443;29;20501;-88
2022/05/31 05:54:41;;;;;;;9.18;3.47;;;9.60;99.90;;;;;;4911235;29;20039;-88
2022/05/31 05:57:10;;;;;;;11.35;3.35;;;9.70;99.90;;;;;;4900569;29;20511;-88
2022/05/31 05:59:35;;;;;;;3.60;2.65;;;9.70;99.90;;;;;;4916574;29;20394;-87
2022/05/31 06:02:18;;;;;;;9.43;2.92;;;9.80;99.90;;;;;;4917240;29;20032;-87
2022/05/31 06:04:57;;;;;;;6.05;2.70;;;9.80;99.90;;;;;;4896776;29;20035;-88
2022/05/31 06:07:40;;;;;;;5.10;3.50;;;9.90;99.90;;;;;;4923541;29;20075;-89
2022/05/31 06:10:19;;;;;;;16.33;4.18;;;10.00;99.90;;;;;;4916101;29;20118;-88
2022/05/31 06:12:56;;;;;;;7.00;3.42;;;10.00;99.90;;;;;;4916584;29;20061;-89
2022/05/31 06:15:28;;;;;;;6.10;3.45;;;10.10;99.90;;;;;;4900220;29;20032;-88
2022/05/31 06:17:57;;;;;;;14.98;5.75;;;10.10;99.90;;;;;;4898058;29;20482;-89
2022/05/31 06:20:24;;;;;;;14.80;5.53;;;10.20;99.90;;;;;;4887653;29;20445;-89
2022/05/31 06:22:52;;;;;;;10.07;4.38;;;10.40;99.90;;;;;;4916715;29;20063;-89
2022/05/31 06:25:22;;;;;;;10.80;4.25;;;10.50;99.90;;;;;;4915570;29;20020;-88
2022/05/31 06:27:48;;;;;;;16.35;4.97;;;10.60;99.90;;;;;;4899872;29;20032;-89
2022/05/31 06:30:43;;;;;;;19.67;6.10;;;10.70;99.90;;;;;;4916660;29;20050;-88
2022/05/31 06:33:09;;;;;;;16.63;5.18;;;10.70;99.90;;;;;;4926244;29;20052;-88
2022/05/31 06:35:36;;;;;;;14.30;4.93;;;10.70;99.90;;;;;;4914714;29;20059;-88
2022/05/31 06:38:02;;;;;;;14.57;4.40;;;10.70;99.90;;;;;;4916202;29;20031;-89
2022/05/31 06:40:28;;;;;;;18.40;5.55;;;10.70;99.90;;;;;;4916594;29;20060;-89
2022/05/31 06:42:58;;;;;;;22.25;4.18;;;10.70;99.90;;;;;;4928805;29;20062;-89
2022/05/31 06:45:24;;;;;;;10.48;3.95;;;10.80;99.90;;;;;;4927032;29;20063;-88
2022/05/31 06:47:49;;;;;;;14.10;4.60;;;10.90;99.90;;;;;;4899259;29;20418;-88
2022/05/31 06:50:27;;;;;;;15.45;4.72;;;10.90;99.90;;;;;;4917323;29;20031;-88
2022/05/31 06:58:28;;;;;;;10.13;3.72;;;11.10;99.90;;;;;;4916534;29;20034;-89
2022/05/31 07:00:55;;;;;;;8.82;4.15;;;11.30;99.90;;;;;;4913937;29;20055;-87
2022/05/31 07:03:20;;;;;;;11.85;4.47;;;11.30;99.90;;;;;;4929166;29;20031;-88
2022/05/31 07:05:56;;;;;;;12.00;4.55;;;11.40;99.90;;;;;;4923401;29;20393;-90
2022/05/31 07:08:21;;;;;;;15.10;4.20;;;11.50;99.90;;;;;;4912576;29;20500;-87
2022/05/31 07:10:47;;;;;;;14.90;5.03;;;11.60;99.90;;;;;;4916185;29;20052;-86
2022/05/31 07:13:12;;;;;;;17.08;6.95;;;11.70;99.90;;;;;;4929549;29;20525;-88
2022/05/31 07:15:38;;;;;;;19.10;4.75;;;11.80;99.90;;;;;;4920609;29;20020;-88
2022/05/31 07:18:05;;;;;;;13.60;4.43;;;11.90;99.90;;;;;;4899331;29;20039;-88
2022/05/31 07:20:31;;;;;;;9.27;3.60;;;12.00;99.90;;;;;;4898435;29;20087;-87
2022/05/31 07:22:56;;;;;;;13.98;4.47;;;12.00;99.90;;;;;;4898516;29;20068;-87
2022/05/31 07:25:22;;;;;;;14.13;3.90;;;12.00;99.90;;;;;;4913860;29;20036;-88
2022/05/31 07:27:55;;;;;;;18.17;4.20;;;12.10;99.90;;;;;;4914722;29;20028;-87
2022/05/31 07:30:21;;;;;;;12.88;4.03;;;12.20;99.90;;;;;;4916376;29;20020;-89
2022/05/31 07:32:47;;;;;;;8.75;3.30;;;12.30;99.90;;;;;;4915497;29;20032;-89
2022/05/31 07:35:27;;;;;;;11.15;4.18;;;12.30;99.90;;;;;;4914922;29;20492;-88
2022/05/31 07:37:53;;;;;;;11.98;3.30;;;12.30;99.90;;;;;;4914472;29;20044;-88
2022/05/31 07:40:18;;;;;;;5.65;3.00;;;12.40;99.90;;;;;;4915804;29;20024;-88
2022/05/31 07:42:50;;;;;;;4.97;2.50;;;12.60;99.90;;;;;;4917147;29;20040;-88
2022/05/31 07:45:15;;;;;;;10.30;3.75;;;12.60;99.90;;;;;;4915790;29;20028;-89
2022/05/31 07:47:44;;;;;;;7.47;3.47;;;12.70;99.90;;;;;;4918429;29;20035;-88
2022/05/31 07:50:11;;;;;;;9.00;3.65;;;12.80;99.90;;;;;;4919755;29;20646;-87
2022/05/31 07:52:36;;;;;;;12.82;3.45;;;12.90;99.90;;;;;;4919511;29;20030;-90
2022/05/31 07:55:02;;;;;;;7.03;3.30;;;13.00;99.90;;;;;;4919370;29;20111;-89
2022/05/31 08:00:25;;;;;;;18.80;5.47;;;13.10;99.90;;;;;;4919929;29;20142;-89
2022/05/31 08:02:50;;;;;;;12.63;2.95;;;13.20;99.90;;;;;;4902271;29;20115;-88
2022/05/31 08:05:25;;;;;;;9.70;3.03;;;13.30;99.90;;;;;;4919479;29;20024;-89
2022/05/31 08:07:51;;;;;;;19.97;3.87;;;13.40;99.90;;;;;;4933699;29;20028;-88
2022/05/31 08:10:34;;;;;;;9.60;3.42;;;13.50;99.90;;;;;;4919371;29;20024;-88
2022/05/31 08:12:59;;;;;;;11.70;3.70;;;13.60;99.90;;;;;;4898900;29;20037;-88
2022/05/31 08:15:25;;;;;;;10.80;2.65;;;13.70;99.90;;;;;;4916732;29;20035;-88
2022/05/31 08:17:53;;;;;;;5.40;2.45;;;13.80;99.90;;;;;;4918753;29;20452;-88
2022/05/31 08:20:27;;;;;;;9.13;2.80;;;13.90;99.90;;;;;;4931704;29;20048;-89
2022/05/31 08:22:53;;;;;;;8.35;2.88;;;14.10;99.90;;;;;;4909085;29;20036;-89
2022/05/31 08:25:19;;;;;;;7.45;2.58;;;14.20;99.90;;;;;;4915037;29;20028;-87
2022/05/31 08:28:11;;;;;;;6.57;2.42;;;14.30;99.90;;;;;;4920831;29;20095;-88
2022/05/31 08:30:36;;;;;;;5.82;2.38;;;14.40;99.90;;;;;;4902192;29;20052;-89
2022/05/31 08:33:02;;;;;;;5.13;2.42;;;14.50;99.90;;;;;;4919006;29;20032;-89
2022/05/31 08:35:28;;;;;;;7.88;2.70;;;14.50;99.90;;;;;;4918655;29;20071;-89
2022/05/31 08:37:53;;;;;;;13.18;3.30;;;14.40;99.90;;;;;;4901337;29;20080;-88
2022/05/31 08:40:20;;;;;;;9.27;2.92;;;14.40;99.90;;;;;;4918666;29;20032;-90
2022/05/31 08:42:50;;;;;;;3.90;2.20;;;14.50;99.90;;;;;;4918316;29;20032;-89
2022/05/31 08:45:26;;;;;;;5.22;2.28;;;14.50;99.90;;;;;;4901819;29;20052;-89
2022/05/31 08:48:06;;;;;;;10.25;2.78;;;14.60;99.90;;;;;;4901280;29;20032;-89
2022/05/31 08:56:56;;;;;;;6.40;2.22;;;14.70;99.90;;;;;;4918078;29;20517;-89
2022/05/31 08:59:27;;;;;;;5.47;1.60;;;14.90;99.90;;;;;;4918238;29;20055;-89
2022/05/31 09:01:59;;;;;;;5.10;1.95;;;15.10;99.90;;;;;;4900907;29;20456;-89
2022/05/31 09:04:47;;;;;;;5.07;1.85;;;15.20;99.90;;;;;;4901145;29;20023;-89
2022/05/31 09:07:20;;;;;;;5.05;1.92;;;15.20;99.90;;;;;;4900834;29;20159;-88
2022/05/31 09:09:57;;;;;;;10.05;2.72;;;15.10;99.90;;;;;;4918174;29;20476;-89
2022/05/31 09:12:41;;;;;;;7.18;2.33;;;15.10;99.90;;;;;;4918072;29;20031;-88
2022/05/31 09:15:32;;;;;;;7.28;2.00;;;15.00;99.90;;;;;;4900858;29;20404;-88
2022/05/31 09:18:38;;;;;;;4.97;1.85;;;15.00;99.90;;;;;;4917569;29;20066;-89
2022/05/31 09:21:11;;;;;;;8.55;2.83;;;14.90;99.90;;;;;;4917288;29;20063;-89
2022/05/31 09:23:40;;;;;;;9.50;2.35;;;15.00;99.90;;;;;;4899982;29;20036;-90
2022/05/31 09:26:08;;;;;;;8.40;2.33;;;15.00;99.90;;;;;;4917092;29;20075;-89
2022/05/31 09:28:42;;;;;;;8.40;2.55;;;15.10;99.90;;;;;;4922812;29;20036;-89
2022/05/31 09:34:16;;;;;;;6.13;2.20;;;15.20;99.90;;;;;;4930587;29;20068;-88
2022/05/31 09:40:28;;;;;;;8.80;2.42;;;15.00;99.90;;;;;;4859398;29;20057;-89
2022/05/31 09:43:06;;;;;;;6.53;2.40;;;14.90;99.90;;;;;;4879766;29;20068;-89
2022/05/31 09:45:35;;;;;;;9.55;2.45;;;14.90;99.90;;;;;;4917402;29;20416;-89
2022/05/31 09:48:04;;;;;;;6.22;2.58;;;14.90;99.90;;;;;;4917158;29;20492;-89
2022/05/31 09:50:30;;;;;;;8.50;2.40;;;15.00;99.90;;;;;;4917282;29;20453;-89
2022/05/31 09:52:59;;;;;;;9.35;3.03;;;15.10;99.90;;;;;;4916884;29;20028;-90
2022/05/31 09:58:36;;;;;;;4.13;1.90;;;15.20;99.90;;;;;;4917241;29;20034;-89
2022/05/31 10:01:24;;;;;;;5.18;2.08;;;15.20;99.90;;;;;;4917151;29;20066;-88
2022/05/31 10:03:59;;;;;;;5.03;2.00;;;15.20;99.90;;;;;;4899938;29;20075;-87
2022/05/31 10:06:28;;;;;;;6.80;2.38;;;15.20;99.90;;;;;;4916762;29;20031;-89
2022/05/31 10:08:54;;;;;;;7.75;2.40;;;15.30;99.90;;;;;;4916618;29;20024;-89
2022/05/31 10:11:32;;;;;;;5.97;2.20;;;15.50;99.90;;;;;;4899734;29;20055;-88
2022/05/31 10:14:23;;;;;;;8.27;2.85;;;15.60;99.90;;;;;;4916796;29;20047;-88
2022/05/31 10:16:49;;;;;;;6.30;1.90;;;15.60;99.90;;;;;;4916808;29;20036;-89
2022/05/31 10:19:29;;;;;;;10.43;2.75;;;15.60;99.90;;;;;;4899821;29;20028;-88
2022/05/31 10:21:56;;;;;;;6.35;2.50;;;15.60;99.90;;;;;;4899230;29;20048;-89
2022/05/31 10:24:25;;;;;;;4.97;2.90;;;15.70;99.90;;;;;;4916670;29;20043;-89
2022/05/31 10:27:11;;;;;;;5.95;2.13;;;15.80;99.90;;;;;;4916477;29;20028;-88
2022/05/31 10:29:59;;;;;;;7.70;2.97;;;15.90;99.90;;;;;;4899637;29;20062;-88
2022/05/31 10:32:46;;;;;;;6.28;2.03;;;15.90;99.90;;;;;;4916662;29;20441;-88
2022/05/31 10:35:17;;;;;;;4.97;1.95;;;16.00;99.90;;;;;;4916503;29;20024;-89
2022/05/31 10:37:59;;;;;;;5.30;2.33;;;16.20;99.90;;;;;;4916209;29;20477;-88
2022/05/31 10:40:31;;;;;;;4.28;1.88;;;16.30;99.90;;;;;;4931245;29;20047;-89
2022/05/31 10:43:03;;;;;;;5.50;2.25;;;16.30;99.90;;;;;;4913736;29;20029;-89
2022/05/31 10:45:33;;;;;;;7.57;1.90;;;16.20;99.90;;;;;;4898869;29;20115;-88
2022/05/31 10:48:00;;;;;;;7.90;1.92;;;16.20;99.90;;;;;;4907081;29;20425;-89
2022/05/31 10:50:38;;;;;;;5.07;2.38;;;16.10;99.90;;;;;;4916213;29;20044;-90
2022/05/31 10:53:17;;;;;;;2.95;1.77;;;16.20;99.90;;;;;;4928475;29;20040;-89
2022/05/31 10:55:49;;;;;;;4.45;1.80;;;16.20;99.90;;;;;;4892855;29;20735;-89
2022/05/31 10:58:32;;;;;;;3.70;1.40;;;16.20;99.90;;;;;;4916353;29;20027;-90
2022/05/31 11:01:13;;;;;;;2.80;1.20;;;16.40;99.90;;;;;;4914431;29;20087;-90
2022/05/31 11:04:42;;;;;;;4.72;1.50;;;16.50;99.90;;;;;;4896278;29;20042;-88
2022/05/31 11:11:27;;;;;;;2.30;1.40;;;16.60;99.90;;;;;;4914719;29;20028;-88
2022/05/31 11:14:01;;;;;;;4.45;1.40;;;16.70;98.50;;;;;;4857505;29;20081;-89
2022/05/31 11:17:06;;;;;;;3.97;1.17;;;16.60;99.90;;;;;;4898617;29;20067;-89
2022/05/31 11:20:18;;;;;;;3.38;1.45;;;16.60;99.90;;;;;;4915722;29;20506;-87
2022/05/31 11:23:14;;;;;;;2.20;1.45;;;16.60;99.90;;;;;;4901255;29;20392;-87
2022/05/31 11:26:21;;;;;;;7.88;2.40;;;16.70;99.90;;;;;;4901398;29;20028;-87
2022/05/31 11:29:28;;;;;;;3.78;1.38;;;17.00;99.90;;;;;;4900215;29;20032;-88
2022/05/31 11:32:31;;;;;;;4.15;1.15;;;17.20;99.30;;;;;;4915779;29;20389;-88
2022/05/31 11:35:21;;;;;;;2.63;1.15;;;17.30;98.20;;;;;;4901349;29;20397;-88
2022/05/31 11:37:56;;;;;;;6.57;1.42;;;17.10;99.60;;;;;;4911530;29;20495;-87
2022/05/31 11:41:16;;;;;;;2.42;1.65;;;17.10;98.10;;;;;;4919804;29;20017;-87
2022/05/31 11:44:00;;;;;;;4.07;1.60;;;17.10;97.30;;;;;;4880055;29;20437;-87
2022/05/31 11:46:31;;;;;;;2.22;1.25;;;17.20;96.30;;;;;;4880317;29;20044;-88
2022/05/31 11:48:59;;;;;;;5.90;1.75;;;17.30;85.30;;;;;;4880060;29;20107;-88
2022/05/31 11:51:56;;;;;;;5.82;1.90;;;17.40;76.80;;;;;;4880046;29;20111;-88
2022/05/31 11:58:25;;;;;;;5.78;1.63;;;17.50;76.80;;;;;;4882895;29;20043;-89
2022/05/31 12:01:30;;;;;;;5.20;1.50;;;17.30;70.40;;;;;;4868030;29;20117;-89
2022/05/31 12:04:35;;;;;;;1.92;1.33;;;17.30;66.60;;;;;;4923275;29;20032;-88
2022/05/31 12:07:15;;;;;;;6.30;1.48;;;17.20;73.20;;;;;;4915875;29;20055;-88
2022/05/31 12:10:06;;;;;;;1.98;1.17;;;17.20;77.50;;;;;;4919565;29;20028;-88
2022/05/31 12:12:33;;;;;;;1.38;1.20;;;17.10;83.90;;;;;;4930725;29;20485;-88
2022/05/31 12:15:43;;;;;;;3.92;1.20;;;17.10;93.30;;;;;;4902574;29;20032;-89
2022/05/31 12:18:14;;;;;;;6.10;1.25;;;17.10;88.80;;;;;;4861292;29;20037;-88
2022/05/31 12:21:06;;;;;;;3.65;1.33;;;17.10;81.30;;;;;;4859833;29;20151;-88
2022/05/31 12:24:03;;;;;;;5.32;1.35;;;17.10;81.60;;;;;;4864405;29;20100;-88
2022/05/31 12:26:45;;;;;;;3.60;1.13;;;17.10;85.50;;;;;;4875252;29;20089;-89
2022/05/31 12:29:52;;;;;;;2.90;1.10;;;17.30;90.50;;;;;;4900552;29;20028;-90
2022/05/31 12:32:25;;;;;;;4.43;1.38;;;17.60;73.90;;;;;;4881505;29;20394;-91
2022/05/31 12:34:51;;;;;;;3.90;1.30;;;17.50;65.30;;;;;;4890248;29;20358;-88
2022/05/31 12:37:55;;;;;;;1.20;1.10;;;17.50;64.50;;;;;;4890197;29;20032;-90
2022/05/31 12:40:53;;;;;;;3.42;1.40;;;17.40;64.00;;;;;;4900086;29;20477;-88
2022/05/31 12:43:57;;;;;;;3.50;1.30;;;17.40;62.70;;;;;;4880994;29;20041;-90
2022/05/31 12:46:34;;;;;;;1.90;1.10;;;17.40;58.60;;;;;;4886201;29;20140;-90
2022/05/31 12:49:05;;;;;;;1.52;1.20;;;17.30;63.60;;;;;;4914586;29;20755;-93
2022/05/31 12:51:32;;;;;;;2.13;1.00;;;17.30;69.40;;;;;;4883032;29;20055;-90
2022/05/31 12:54:11;;;;;;;1.85;0.95;;;17.30;59.90;;;;;;4882580;29;20029;-90
2022/05/31 12:56:39;;;;;;;5.65;1.35;;;17.20;67.80;;;;;;4899261;29;20112;-90
2022/05/31 12:59:08;;;;;;;5.55;1.20;;;17.20;74.30;;;;;;4887518;29;20033;-91
2022/05/31 13:02:05;;;;;;;3.05;1.40;;;17.20;69.70;;;;;;4899768;29;20119;-89
2022/05/31 13:04:33;;;;;;;3.47;1.45;;;17.20;69.10;;;;;;4899807;29;20035;-87
2022/05/31 13:07:04;;;;;;;4.03;1.77;;;17.10;81.10;;;;;;4882168;29;20433;-90
2022/05/31 13:09:39;;;;;;;2.28;1.38;;;17.20;78.20;;;;;;4908538;29;20080;-89
2022/05/31 13:20:44;;;;;;;4.00;1.30;;;17.40;81.70;;;;;;4904700;29;20408;-89
2022/05/31 13:23:13;;;;;;;5.63;1.20;;;17.50;80.50;;;;;;4905532;29;20083;-87
2022/05/31 13:25:41;;;;;;;3.00;1.35;;;17.60;78.10;;;;;;4910873;29;20024;-89
2022/05/31 13:28:25;;;;;;;4.30;1.30;;;17.70;83.60;;;;;;4919397;29;20027;-89
2022/05/31 13:31:22;;;;;;;2.05;0.82;;;17.90;79.80;;;;;;4924969;29;20043;-89
2022/05/31 13:34:05;;;;;;;8.40;1.50;;;18.00;75.80;;;;;;4911233;29;20032;-90
2022/05/31 13:36:52;;;;;;;3.95;1.40;;;18.00;70.30;;;;;;4898935;29;20134;-89
2022/05/31 13:39:18;;;;;;;3.80;1.55;;;17.90;72.10;;;;;;4900205;29;20036;-88
2022/05/31 13:41:51;;;;;;;3.72;1.63;;;17.90;74.80;;;;;;4887573;29;20029;-89
2022/05/31 13:44:36;;;;;;;2.13;1.20;;;17.80;77.00;;;;;;4895529;29;20040;-88
2022/05/31 13:47:08;;;;;;;3.27;1.37;;;17.80;77.00;;;;;;4918294;29;20123;-91
2022/05/31 13:49:39;;;;;;;5.57;1.33;;;17.80;76.50;;;;;;4917102;29;20024;-88
2022/05/31 13:52:28;;;;;;;4.72;1.70;;;17.80;77.70;;;;;;4913759;29;20025;-90
2022/05/31 13:55:09;;;;;;;2.05;1.77;;;17.80;77.10;;;;;;4929483;29;20091;-88
2022/05/31 13:57:36;;;;;;;2.28;1.38;;;17.80;78.30;;;;;;4916200;29;20044;-89
2022/05/31 14:00:07;;;;;;;4.55;1.75;;;17.80;77.90;;;;;;4899695;29;20066;-89
2022/05/31 14:02:52;;;;;;;4.05;1.45;;;17.70;79.80;;;;;;4927261;29;20038;-90
2022/05/31 14:05:29;;;;;;;8.00;2.20;;;17.70;79.70;;;;;;4910536;29;20055;-89
2022/05/31 14:07:55;;;;;;;13.80;4.28;;;17.70;80.40;;;;;;4917370;29;20272;-90
2022/05/31 14:10:24;;;;;;;2.35;1.42;;;17.70;87.90;;;;;;4900442;29;20472;-90
2022/05/31 14:13:04;;;;;;;1.50;1.20;;;17.90;85.40;;;;;;4897703;29;20094;-91
2022/05/31 14:15:35;;;;;;;6.80;2.08;;;17.80;82.90;;;;;;4903704;29;20385;-89